Time;durP1;ratioP1;P1;durP2;ratioP2;P2;SDS_P1;SDS_P2;PMS_P1;PMS_P2;Temp;Humidity;BMP_temperature;BMP_pressure;BME280_temperature;BME280_humidity;BME280_pressure;Samples;Min_cycle;Max_cycle;Signal;HPM_P1;HPM_P2
2021/05/17 00:01:59;;;;;;;6.45;1.90;;;11.60;87.00;;;;;;5016295;28;20566;-76
2021/05/17 00:04:32;;;;;;;4.60;2.13;;;11.60;86.90;;;;;;5021214;28;20384;-78
2021/05/17 00:06:59;;;;;;;5.72;1.90;;;11.60;87.20;;;;;;5026980;28;20457;-77
2021/05/17 00:09:25;;;;;;;5.38;2.58;;;11.60;87.10;;;;;;5014005;28;20030;-82
2021/05/17 00:11:51;;;;;;;6.38;2.30;;;11.60;87.10;;;;;;5017074;28;20380;-78
2021/05/17 00:14:18;;;;;;;4.15;1.52;;;11.60;87.20;;;;;;5017968;28;20044;-77
2021/05/17 00:16:44;;;;;;;6.43;2.22;;;11.60;87.10;;;;;;5010434;28;20439;-78
2021/05/17 00:19:09;;;;;;;9.07;2.45;;;11.60;87.00;;;;;;5023341;28;20028;-76
2021/05/17 00:21:36;;;;;;;5.53;2.33;;;11.60;87.00;;;;;;5020459;28;20155;-76
2021/05/17 00:24:02;;;;;;;7.25;2.50;;;11.70;87.10;;;;;;5002168;28;20097;-76
2021/05/17 00:26:28;;;;;;;7.28;2.42;;;11.70;87.10;;;;;;5011967;28;20029;-76
2021/05/17 00:28:57;;;;;;;7.88;2.33;;;11.60;87.20;;;;;;5018754;28;20083;-76
2021/05/17 00:31:22;;;;;;;6.35;2.25;;;11.70;87.10;;;;;;5023692;28;20038;-78
2021/05/17 00:33:49;;;;;;;6.05;2.47;;;11.70;87.20;;;;;;5016908;28;20485;-76
2021/05/17 00:36:17;;;;;;;7.97;3.00;;;11.70;87.10;;;;;;5001854;28;20056;-75
2021/05/17 00:38:43;;;;;;;6.80;2.53;;;11.80;87.00;;;;;;5005448;28;20029;-76
2021/05/17 00:41:09;;;;;;;7.90;2.60;;;11.80;87.20;;;;;;5020067;28;20099;-76
2021/05/17 00:43:38;;;;;;;9.10;2.60;;;11.80;87.10;;;;;;5021668;28;20033;-76
2021/05/17 00:46:05;;;;;;;8.18;2.83;;;11.80;87.20;;;;;;5022888;28;20026;-76
2021/05/17 00:48:35;;;;;;;9.02;3.17;;;11.80;87.20;;;;;;5024109;28;20595;-79
2021/05/17 00:51:03;;;;;;;7.00;2.35;;;11.80;87.10;;;;;;5023427;28;20049;-82
2021/05/17 00:53:31;;;;;;;7.60;2.20;;;11.70;87.20;;;;;;5025044;28;20089;-77
2021/05/17 00:55:57;;;;;;;6.93;2.20;;;11.70;87.10;;;;;;5022488;28;20058;-76
2021/05/17 00:58:23;;;;;;;9.02;2.95;;;11.80;87.20;;;;;;5022907;28;20041;-81
2021/05/17 01:00:49;;;;;;;9.15;2.88;;;11.70;87.10;;;;;;5023050;28;20103;-76
2021/05/17 01:03:15;;;;;;;8.70;2.83;;;11.70;87.10;;;;;;5022662;28;20034;-76
2021/05/17 01:05:41;;;;;;;8.00;2.78;;;11.70;86.90;;;;;;5021380;28;20057;-78
2021/05/17 01:08:13;;;;;;;10.35;2.83;;;11.70;87.10;;;;;;5023741;28;20520;-75
2021/05/17 01:10:43;;;;;;;8.65;3.17;;;11.70;87.20;;;;;;5022275;28;20061;-76
2021/05/17 01:13:10;;;;;;;8.68;2.35;;;11.60;87.20;;;;;;5027600;28;20385;-76
2021/05/17 01:15:37;;;;;;;8.05;2.45;;;11.70;87.20;;;;;;5029221;28;20084;-77
2021/05/17 01:18:04;;;;;;;8.85;2.38;;;11.70;87.20;;;;;;5028135;28;20033;-76
2021/05/17 01:20:33;;;;;;;10.48;3.05;;;11.70;86.90;;;;;;5017316;28;20029;-81
2021/05/17 01:23:29;;;;;;;12.80;2.78;;;11.70;86.90;;;;;;5021235;28;20049;-81
2021/05/17 01:25:57;;;;;;;8.75;2.45;;;11.70;86.70;;;;;;5001539;28;20030;-78
2021/05/17 01:28:25;;;;;;;9.38;2.65;;;11.70;86.80;;;;;;5002218;28;20034;-76
2021/05/17 01:30:53;;;;;;;11.25;2.38;;;11.70;86.70;;;;;;5007626;28;20076;-75
2021/05/17 01:33:19;;;;;;;11.30;2.50;;;11.70;86.70;;;;;;5021044;28;20346;-76
2021/05/17 01:35:50;;;;;;;10.80;2.45;;;11.70;86.60;;;;;;5022934;28;20037;-79
2021/05/17 01:38:17;;;;;;;7.72;2.35;;;11.70;86.70;;;;;;5021271;28;20492;-76
2021/05/17 01:40:45;;;;;;;10.93;3.00;;;11.70;86.40;;;;;;5019615;28;20069;-80
2021/05/17 01:43:12;;;;;;;9.93;2.17;;;11.70;86.60;;;;;;5019525;28;20045;-79
2021/05/17 01:45:39;;;;;;;9.07;2.65;;;11.70;86.60;;;;;;5020228;28;20038;-77
2021/05/17 01:48:06;;;;;;;10.68;2.90;;;11.70;86.90;;;;;;5019738;28;20544;-78
2021/05/17 01:50:36;;;;;;;9.10;2.70;;;11.70;86.80;;;;;;5020323;28;20361;-78
2021/05/17 01:53:02;;;;;;;6.38;2.45;;;11.60;87.00;;;;;;5002912;28;20117;-76
2021/05/17 01:55:28;;;;;;;9.60;2.90;;;11.70;87.20;;;;;;5015967;28;20032;-76
2021/05/17 01:58:13;;;;;;;8.77;2.70;;;11.70;87.10;;;;;;5021429;28;20049;-76
2021/05/17 02:00:42;;;;;;;11.00;3.25;;;11.60;87.10;;;;;;5016591;28;20064;-75
2021/05/17 02:03:08;;;;;;;11.52;2.88;;;11.60;87.20;;;;;;5021511;28;20048;-75
2021/05/17 02:05:34;;;;;;;12.38;2.78;;;11.60;87.40;;;;;;5021317;28;20033;-79
2021/05/17 02:08:02;;;;;;;8.90;2.67;;;11.60;87.50;;;;;;5020845;28;20132;-76
2021/05/17 02:10:29;;;;;;;10.38;2.90;;;11.70;87.40;;;;;;5010636;28;20127;-76
2021/05/17 02:12:57;;;;;;;9.68;2.88;;;11.60;87.40;;;;;;5009703;28;20037;-75
2021/05/17 02:15:23;;;;;;;9.73;2.58;;;11.60;87.30;;;;;;5019069;28;20120;-75
2021/05/17 02:18:07;;;;;;;8.18;3.03;;;11.60;87.50;;;;;;5020523;28;20067;-75
2021/05/17 02:20:36;;;;;;;11.05;3.25;;;11.60;87.50;;;;;;5022645;28;20045;-76
2021/05/17 02:23:08;;;;;;;13.02;3.10;;;11.60;87.40;;;;;;5020719;28;20040;-80
2021/05/17 02:25:35;;;;;;;13.82;3.78;;;11.60;87.40;;;;;;5020297;28;20421;-75
2021/05/17 02:28:01;;;;;;;11.90;3.20;;;11.60;87.20;;;;;;5015525;28;20026;-75
2021/05/17 02:30:27;;;;;;;13.05;2.90;;;11.50;87.20;;;;;;5020916;28;20365;-79
2021/05/17 02:32:54;;;;;;;12.38;2.90;;;11.50;87.30;;;;;;5020506;28;20030;-76
2021/05/17 02:35:21;;;;;;;12.82;2.92;;;11.60;87.30;;;;;;5017468;28;20033;-76
2021/05/17 02:37:48;;;;;;;10.88;3.10;;;11.60;87.20;;;;;;5020981;28;20063;-76
2021/05/17 02:40:15;;;;;;;11.35;3.13;;;11.60;87.20;;;;;;5020233;28;20037;-75
2021/05/17 02:42:44;;;;;;;11.07;3.08;;;11.60;87.10;;;;;;5022259;28;20030;-76
2021/05/17 02:45:12;;;;;;;12.80;3.33;;;11.60;87.20;;;;;;5021798;28;20068;-76
2021/05/17 02:47:38;;;;;;;10.43;3.50;;;11.60;87.30;;;;;;5021073;28;20038;-79
2021/05/17 02:50:06;;;;;;;13.43;3.30;;;11.60;87.30;;;;;;5018514;28;20457;-76
2021/05/17 02:52:32;;;;;;;13.00;3.55;;;11.60;87.30;;;;;;5018882;28;20120;-75
2021/05/17 02:55:08;;;;;;;12.50;3.70;;;11.50;87.40;;;;;;5020047;28;20483;-75
2021/05/17 02:58:04;;;;;;;9.93;3.38;;;11.50;87.30;;;;;;4999737;28;20022;-82
2021/05/17 03:00:35;;;;;;;9.23;2.88;;;11.50;87.50;;;;;;5000939;28;20060;-75
2021/05/17 03:03:49;;;;;;;14.45;4.05;;;11.50;87.80;;;;;;5014913;28;20088;-76
2021/05/17 03:06:33;;;;;;;17.25;3.58;;;11.50;88.00;;;;;;5010922;28;20112;-75
2021/05/17 03:09:08;;;;;;;12.77;3.90;;;11.40;88.00;;;;;;5011761;28;20072;-78
2021/05/17 03:11:41;;;;;;;13.90;3.78;;;11.40;87.80;;;;;;5021861;28;20030;-77
2021/05/17 03:14:14;;;;;;;11.40;3.55;;;11.30;87.90;;;;;;5011075;28;20464;-76
2021/05/17 03:16:45;;;;;;;14.98;4.07;;;11.30;88.00;;;;;;5015093;28;20084;-75
2021/05/17 03:19:12;;;;;;;14.27;4.22;;;11.30;88.10;;;;;;5016852;28;20361;-78
2021/05/17 03:21:39;;;;;;;13.32;4.07;;;11.30;88.10;;;;;;5025615;28;20437;-75
2021/05/17 03:24:07;;;;;;;14.38;4.07;;;11.30;87.90;;;;;;5021801;28;20096;-78
2021/05/17 03:26:35;;;;;;;10.30;3.35;;;11.30;87.70;;;;;;5024030;28;20068;-76
2021/05/17 03:29:02;;;;;;;13.68;3.60;;;11.30;87.70;;;;;;5023791;28;20117;-76
2021/05/17 03:31:28;;;;;;;12.18;3.65;;;11.30;87.50;;;;;;5023090;28;20061;-76
2021/05/17 03:33:59;;;;;;;12.13;4.38;;;11.30;87.60;;;;;;5023534;28;20061;-78
2021/05/17 03:36:25;;;;;;;15.50;4.07;;;11.30;87.60;;;;;;5023938;28;21154;-76
2021/05/17 03:38:50;;;;;;;15.15;4.60;;;11.30;87.50;;;;;;5026243;28;20053;-75
2021/05/17 03:41:16;;;;;;;13.07;3.67;;;11.30;87.50;;;;;;5030261;28;20049;-75
2021/05/17 03:43:42;;;;;;;11.25;3.55;;;11.30;87.50;;;;;;5030106;28;20381;-76
2021/05/17 03:46:07;;;;;;;10.70;3.72;;;11.30;87.50;;;;;;5030489;28;20341;-75
2021/05/17 03:48:40;;;;;;;15.10;4.22;;;11.30;87.50;;;;;;5028041;28;20080;-81
2021/05/17 03:51:12;;;;;;;12.70;4.20;;;11.30;87.70;;;;;;5023787;28;20041;-77
2021/05/17 03:53:39;;;;;;;11.25;4.18;;;11.30;87.70;;;;;;5022414;28;20073;-77
2021/05/17 03:56:06;;;;;;;10.73;3.50;;;11.30;87.70;;;;;;5021299;28;20034;-75
2021/05/17 03:58:31;;;;;;;10.95;3.70;;;11.30;87.70;;;;;;5023497;28;20050;-75
2021/05/17 04:00:58;;;;;;;13.93;4.32;;;11.30;87.80;;;;;;5019563;28;20047;-77
2021/05/17 04:03:25;;;;;;;14.55;4.40;;;11.30;87.90;;;;;;5020384;28;20539;-75
2021/05/17 04:12:32;;;;;;;13.23;4.80;;;11.20;88.10;;;;;;5024821;28;20453;-77
2021/05/17 04:13:56;;;;;;;11.70;4.85;;;11.20;88.10;;;;;;5019492;28;20052;-76
2021/05/17 04:16:22;;;;;;;11.07;3.90;;;11.20;88.20;;;;;;5020116;28;20045;-81
2021/05/17 04:18:48;;;;;;;14.50;4.18;;;11.10;88.20;;;;;;5020451;28;20049;-76
2021/05/17 04:21:14;;;;;;;11.52;4.47;;;11.10;88.40;;;;;;5008443;28;20078;-75
2021/05/17 04:23:40;;;;;;;14.65;5.25;;;11.10;88.50;;;;;;5022775;28;20072;-76
2021/05/17 04:26:06;;;;;;;12.38;4.88;;;11.20;88.50;;;;;;5015636;28;20083;-81
2021/05/17 04:28:33;;;;;;;13.07;4.97;;;11.20;88.70;;;;;;5021414;28;21799;-75
2021/05/17 04:30:59;;;;;;;11.80;4.72;;;11.20;88.60;;;;;;5015554;28;20466;-75
2021/05/17 04:33:25;;;;;;;12.82;4.70;;;11.30;88.60;;;;;;5016416;28;20048;-82
2021/05/17 04:35:51;;;;;;;12.88;4.53;;;11.20;88.40;;;;;;5018024;28;20041;-76
2021/05/17 04:38:16;;;;;;;14.80;4.90;;;11.20;88.50;;;;;;5017097;28;20072;-75
2021/05/17 04:40:44;;;;;;;15.90;5.03;;;11.20;88.40;;;;;;5019062;28;20378;-76
2021/05/17 04:43:10;;;;;;;16.88;5.53;;;11.20;88.40;;;;;;5017661;28;20030;-75
2021/05/17 04:45:35;;;;;;;17.85;5.25;;;11.30;88.50;;;;;;5019228;28;20044;-78
2021/05/17 04:48:01;;;;;;;15.07;4.50;;;11.30;88.60;;;;;;5015570;28;20049;-80
2021/05/17 04:50:27;;;;;;;14.73;6.03;;;11.40;88.60;;;;;;5018891;28;20265;-75
2021/05/17 04:52:52;;;;;;;14.13;6.15;;;11.40;88.40;;;;;;5018481;28;20497;-76
2021/05/17 04:55:18;;;;;;;12.63;5.25;;;11.50;88.20;;;;;;5019055;28;20448;-77
2021/05/17 04:57:44;;;;;;;12.05;5.43;;;11.50;88.20;;;;;;5018542;28;20517;-79
2021/05/17 05:00:11;;;;;;;11.35;5.35;;;11.60;88.10;;;;;;5019227;28;20040;-75
2021/05/17 05:02:37;;;;;;;11.38;4.38;;;11.60;88.00;;;;;;5020593;28;20504;-76
2021/05/17 05:05:03;;;;;;;12.00;4.40;;;11.80;87.80;;;;;;5018397;28;20088;-79
2021/05/17 05:07:29;;;;;;;12.48;4.78;;;11.90;87.50;;;;;;5021227;28;20037;-76
2021/05/17 05:09:54;;;;;;;12.13;4.32;;;12.00;87.10;;;;;;5016891;28;20049;-76
2021/05/17 05:12:20;;;;;;;14.32;4.50;;;12.00;87.00;;;;;;5019285;28;20052;-76
2021/05/17 05:14:46;;;;;;;13.90;4.00;;;12.10;86.70;;;;;;5024166;28;20033;-76
2021/05/17 05:17:11;;;;;;;12.50;4.20;;;11.90;86.70;;;;;;5015011;28;20485;-79
2021/05/17 05:19:37;;;;;;;17.35;5.43;;;12.00;86.80;;;;;;5013911;28;20497;-80
2021/05/17 05:22:03;;;;;;;10.77;4.70;;;11.90;86.90;;;;;;5021090;28;20402;-76
2021/05/17 05:24:28;;;;;;;12.73;4.85;;;11.80;87.20;;;;;;5018334;28;20045;-79
2021/05/17 05:29:33;;;;;;;13.48;4.57;;;11.80;87.40;;;;;;4999577;28;20394;-76
2021/05/17 05:32:03;;;;;;;14.95;4.93;;;11.80;87.50;;;;;;5011299;28;20041;-75
2021/05/17 05:34:29;;;;;;;11.68;5.03;;;11.70;87.60;;;;;;4997918;28;20499;-73
2021/05/17 05:36:58;;;;;;;17.95;5.18;;;11.60;88.00;;;;;;4996432;28;20104;-71
2021/05/17 05:39:25;;;;;;;16.02;5.65;;;11.60;88.30;;;;;;5013155;28;20041;-73
2021/05/17 05:41:51;;;;;;;17.00;5.47;;;11.60;88.30;;;;;;4997357;28;20065;-75
2021/05/17 05:44:17;;;;;;;14.63;5.40;;;11.70;88.40;;;;;;5000685;28;20042;-70
2021/05/17 05:46:43;;;;;;;15.70;5.78;;;11.70;88.50;;;;;;5002084;28;20361;-70
2021/05/17 05:49:09;;;;;;;14.73;5.60;;;11.70;88.60;;;;;;5014804;28;20029;-74
2021/05/17 05:51:35;;;;;;;13.90;5.57;;;11.60;88.50;;;;;;5019763;28;20037;-70
2021/05/17 05:54:00;;;;;;;15.35;5.30;;;11.60;88.90;;;;;;5019741;28;20425;-71
2021/05/17 05:56:27;;;;;;;18.90;5.63;;;11.70;88.90;;;;;;5008480;28;20030;-73
2021/05/17 05:58:53;;;;;;;18.15;7.45;;;11.70;88.80;;;;;;5015740;28;20045;-75
2021/05/17 06:01:19;;;;;;;16.05;5.88;;;11.80;88.80;;;;;;5020416;28;20057;-71
2021/05/17 06:03:45;;;;;;;21.60;7.43;;;11.80;88.80;;;;;;5027760;28;20109;-70
2021/05/17 06:06:11;;;;;;;21.02;5.85;;;11.80;88.70;;;;;;5019043;28;20108;-71
2021/05/17 06:08:40;;;;;;;17.52;6.00;;;11.80;88.60;;;;;;5018688;28;20033;-70
2021/05/17 06:11:06;;;;;;;15.35;5.47;;;11.90;88.40;;;;;;5019930;28;20120;-72
2021/05/17 06:13:33;;;;;;;16.35;6.10;;;11.90;88.00;;;;;;5018930;28;20044;-70
2021/05/17 06:15:59;;;;;;;16.25;6.00;;;11.90;87.90;;;;;;5019040;28;20071;-72
2021/05/17 06:18:25;;;;;;;13.10;4.93;;;11.90;87.90;;;;;;5017769;28;20039;-75
2021/05/17 06:20:51;;;;;;;14.30;5.65;;;11.90;87.90;;;;;;5020578;28;20037;-69
2021/05/17 06:23:17;;;;;;;13.23;5.05;;;11.90;87.80;;;;;;5015311;28;20036;-71
2021/05/17 06:25:43;;;;;;;12.27;4.90;;;11.80;87.90;;;;;;5014330;28;20121;-71
2021/05/17 06:28:12;;;;;;;12.65;5.35;;;11.80;87.80;;;;;;5013287;28;20022;-71
2021/05/17 06:30:47;;;;;;;11.82;5.45;;;11.90;88.00;;;;;;5016844;28;20144;-73
2021/05/17 06:33:15;;;;;;;11.35;5.65;;;11.90;88.20;;;;;;5018173;28;20038;-71
2021/05/17 06:35:47;;;;;;;14.65;5.70;;;11.90;88.00;;;;;;5004265;28;20034;-71
2021/05/17 06:38:14;;;;;;;11.60;5.57;;;11.90;88.00;;;;;;4995004;28;20042;-72
2021/05/17 06:40:39;;;;;;;11.82;4.95;;;11.90;88.00;;;;;;5013013;28;20054;-72
2021/05/17 06:43:05;;;;;;;12.40;6.03;;;11.90;87.90;;;;;;4999744;28;20473;-71
2021/05/17 06:45:32;;;;;;;11.48;5.10;;;12.00;87.80;;;;;;5019213;28;21297;-71
2021/05/17 06:47:58;;;;;;;12.43;6.00;;;12.00;87.80;;;;;;5015217;28;20129;-73
2021/05/17 06:50:24;;;;;;;10.65;5.57;;;11.90;87.70;;;;;;5018335;28;20038;-71
2021/05/17 06:52:51;;;;;;;10.98;5.53;;;12.00;87.90;;;;;;5022643;28;20041;-71
2021/05/17 06:55:20;;;;;;;9.82;4.93;;;12.10;88.00;;;;;;5025123;28;20381;-71
2021/05/17 07:00:32;;;;;;;11.88;5.28;;;12.20;87.40;;;;;;5021452;28;20869;-71
2021/05/17 07:03:01;;;;;;;11.07;5.65;;;12.30;87.50;;;;;;5020576;28;20133;-75
2021/05/17 07:05:27;;;;;;;12.02;6.60;;;12.40;87.40;;;;;;5019919;28;20053;-72
2021/05/17 07:11:29;;;;;;;11.93;6.47;;;12.30;87.40;;;;;;5022943;28;20053;-71
2021/05/17 07:13:24;;;;;;;;;;;12.50;87.20;;;;;;5022624;28;20056;-71
2021/05/17 07:15:49;;;;;;;11.55;6.60;;;12.40;87.20;;;;;;5026551;28;19921;-71
2021/05/17 07:18:16;;;;;;;12.43;6.75;;;12.20;87.40;;;;;;5025461;28;20465;-70
2021/05/17 07:26:08;;;;;;;15.15;10.75;;;12.20;88.30;;;;;;5023950;28;20196;-71
2021/05/17 07:28:34;;;;;;;13.82;10.18;;;12.30;87.70;;;;;;5027428;28;20397;-69
2021/05/17 07:31:05;;;;;;;12.73;9.95;;;12.40;87.40;;;;;;5024028;28;20045;-70
2021/05/17 07:33:31;;;;;;;15.45;9.80;;;12.40;87.10;;;;;;5019778;28;20532;-69
2021/05/17 07:35:58;;;;;;;12.02;10.73;;;12.20;87.70;;;;;;5014291;28;20048;-70
2021/05/17 07:38:28;;;;;;;12.57;9.38;;;12.30;87.60;;;;;;5006433;28;20026;-71
2021/05/17 07:40:54;;;;;;;13.32;10.18;;;12.20;87.40;;;;;;5003997;28;20046;-71
2021/05/17 07:43:20;;;;;;;15.77;10.95;;;12.30;87.80;;;;;;5004841;28;20046;-71
2021/05/17 07:45:46;;;;;;;17.23;11.68;;;12.30;88.20;;;;;;5002695;28;20140;-72
2021/05/17 07:48:12;;;;;;;17.38;12.43;;;12.20;88.50;;;;;;4999759;28;20367;-71
2021/05/17 07:50:38;;;;;;;16.85;12.30;;;12.30;88.70;;;;;;5011888;28;20046;-72
2021/05/17 07:53:04;;;;;;;22.17;12.38;;;12.30;88.50;;;;;;5028576;28;20038;-72
2021/05/17 07:55:29;;;;;;;18.25;12.63;;;12.10;88.60;;;;;;5019309;28;20026;-71
2021/05/17 07:57:55;;;;;;;19.20;12.40;;;12.10;88.80;;;;;;5026713;28;20485;-77
2021/05/17 08:00:21;;;;;;;23.63;13.90;;;12.10;89.10;;;;;;5018317;28;20046;-71
2021/05/17 08:02:46;;;;;;;30.15;14.05;;;12.10;89.30;;;;;;5022960;28;20377;-74
2021/05/17 08:05:12;;;;;;;30.10;14.88;;;12.30;89.10;;;;;;5023565;28;20092;-71
2021/05/17 08:07:38;;;;;;;28.67;13.95;;;12.50;88.60;;;;;;5020661;28;20213;-70
2021/05/17 08:10:05;;;;;;;30.60;13.32;;;12.50;88.00;;;;;;5020553;28;20117;-74
2021/05/17 08:12:31;;;;;;;30.33;13.82;;;12.60;87.60;;;;;;5026119;28;20389;-70
2021/05/17 08:14:57;;;;;;;27.20;13.32;;;12.70;87.90;;;;;;5022763;28;20463;-70
2021/05/17 08:17:23;;;;;;;26.02;13.20;;;12.80;87.50;;;;;;5018368;28;20473;-71
2021/05/17 08:19:49;;;;;;;23.67;12.18;;;12.80;87.30;;;;;;5015385;28;20084;-70
2021/05/17 08:22:14;;;;;;;25.33;11.45;;;12.90;87.40;;;;;;5026871;28;20045;-71
2021/05/17 08:24:41;;;;;;;21.98;10.00;;;12.90;87.20;;;;;;5006660;28;20117;-70
2021/05/17 08:27:07;;;;;;;21.05;10.02;;;12.70;86.70;;;;;;5027133;28;20029;-71
2021/05/17 08:29:35;;;;;;;17.25;9.45;;;12.70;87.10;;;;;;5018189;28;20045;-75
2021/05/17 08:32:02;;;;;;;18.77;9.40;;;12.50;87.00;;;;;;5022791;28;20128;-73
2021/05/17 08:34:28;;;;;;;19.85;10.68;;;12.50;87.50;;;;;;4997155;28;20026;-74
2021/05/17 08:36:56;;;;;;;21.17;10.98;;;12.40;87.90;;;;;;5010325;28;20049;-74
2021/05/17 08:39:22;;;;;;;20.20;10.80;;;12.50;88.00;;;;;;5008352;28;20089;-71
2021/05/17 08:41:47;;;;;;;18.58;10.60;;;12.50;88.10;;;;;;5029756;28;20045;-70
2021/05/17 08:44:13;;;;;;;21.25;10.73;;;12.70;87.80;;;;;;5028178;28;20041;-71
2021/05/17 08:46:46;;;;;;;21.02;11.05;;;13.20;87.90;;;;;;5018881;28;20494;-72
2021/05/17 08:49:12;;;;;;;18.58;10.60;;;13.60;87.00;;;;;;5026888;28;20042;-73
2021/05/17 08:51:38;;;;;;;22.63;9.73;;;13.80;84.80;;;;;;5026019;28;20037;-71
2021/05/17 08:54:06;;;;;;;24.42;10.32;;;13.70;83.50;;;;;;5022365;28;20040;-71
2021/05/17 08:56:33;;;;;;;18.80;9.77;;;13.60;84.30;;;;;;5030732;28;20496;-70
2021/05/17 08:59:01;;;;;;;18.40;10.35;;;13.50;84.40;;;;;;5023249;28;20460;-70
2021/05/17 09:01:27;;;;;;;18.52;10.82;;;13.60;84.20;;;;;;5026137;28;20468;-71
2021/05/17 09:04:00;;;;;;;20.02;10.55;;;13.40;84.30;;;;;;5028506;28;20556;-72
2021/05/17 09:06:42;;;;;;;23.85;11.82;;;13.30;84.70;;;;;;5024933;28;20096;-72
2021/05/17 09:09:31;;;;;;;20.38;11.18;;;13.30;84.40;;;;;;5022160;28;20036;-71
2021/05/17 09:12:00;;;;;;;25.40;12.07;;;13.50;84.60;;;;;;5019856;28;20116;-71
2021/05/17 09:14:27;;;;;;;21.30;11.90;;;13.60;84.30;;;;;;5025178;28;20037;-72
2021/05/17 09:17:04;;;;;;;18.77;12.40;;;13.80;83.70;;;;;;5021322;28;20504;-75
2021/05/17 09:19:32;;;;;;;23.70;11.90;;;13.50;83.10;;;;;;5026203;28;20033;-70
2021/05/17 09:21:59;;;;;;;20.35;12.70;;;13.30;83.70;;;;;;5026334;28;20033;-72
2021/05/17 09:24:54;;;;;;;22.55;14.23;;;13.10;84.40;;;;;;5021510;28;20048;-70
2021/05/17 09:27:31;;;;;;;22.80;14.57;;;13.10;84.80;;;;;;5019352;28;20041;-71
2021/05/17 09:30:02;;;;;;;23.52;14.55;;;13.20;84.80;;;;;;5023711;28;20033;-73
2021/05/17 09:32:36;;;;;;;23.83;14.15;;;13.30;85.00;;;;;;5020880;28;20504;-73
2021/05/17 09:35:08;;;;;;;22.58;15.18;;;13.40;84.00;;;;;;5031538;28;20484;-74
2021/05/17 09:37:50;;;;;;;21.80;13.80;;;13.30;84.50;;;;;;5011530;28;20519;-73
2021/05/17 09:40:23;;;;;;;19.23;12.38;;;13.20;82.60;;;;;;5005995;28;20093;-75
2021/05/17 09:43:11;;;;;;;18.90;11.43;;;13.40;81.90;;;;;;5023971;28;20519;-73
2021/05/17 09:45:41;;;;;;;21.08;11.77;;;13.60;81.80;;;;;;5016015;28;20029;-73
2021/05/17 09:48:09;;;;;;;18.38;11.60;;;13.80;80.80;;;;;;5024795;28;20049;-73
2021/05/17 09:51:02;;;;;;;17.27;10.35;;;14.00;81.60;;;;;;5009486;28;20156;-75
2021/05/17 09:53:35;;;;;;;16.05;10.75;;;13.90;79.90;;;;;;5000213;28;20037;-74
2021/05/17 09:56:22;;;;;;;18.55;10.38;;;14.10;79.50;;;;;;5005946;28;20044;-74
2021/05/17 09:58:53;;;;;;;14.82;9.93;;;14.30;79.40;;;;;;4997188;28;20434;-74
2021/05/17 10:01:22;;;;;;;16.77;8.90;;;14.30;78.10;;;;;;5006680;28;20045;-73
2021/05/17 10:03:50;;;;;;;16.88;9.18;;;14.10;78.30;;;;;;5030362;28;20038;-74
2021/05/17 10:06:22;;;;;;;17.23;9.05;;;14.50;77.90;;;;;;5011827;28;20030;-73
2021/05/17 10:08:48;;;;;;;17.70;9.40;;;14.40;77.10;;;;;;5020354;28;20029;-73
2021/05/17 10:11:16;;;;;;;14.38;7.68;;;14.50;76.90;;;;;;5021825;28;20100;-73
2021/05/17 10:13:45;;;;;;;19.23;9.93;;;14.20;76.20;;;;;;5034964;28;20037;-74
2021/05/17 10:16:13;;;;;;;15.75;9.15;;;14.30;77.00;;;;;;5020576;28;20477;-76
2021/05/17 10:18:40;;;;;;;14.48;8.60;;;14.50;77.30;;;;;;5028678;28;20037;-74
2021/05/17 10:21:08;;;;;;;15.38;9.60;;;14.30;76.50;;;;;;5022446;28;20064;-73
2021/05/17 10:23:36;;;;;;;15.82;10.00;;;14.20;77.10;;;;;;5015260;28;20037;-74
2021/05/17 10:26:14;;;;;;;16.73;9.82;;;14.10;77.20;;;;;;5013022;28;20099;-73
2021/05/17 10:28:43;;;;;;;15.98;9.82;;;14.60;76.60;;;;;;5025104;28;20038;-74
2021/05/17 10:31:13;;;;;;;12.75;9.18;;;14.80;75.90;;;;;;4995220;28;20046;-78
2021/05/17 10:33:39;;;;;;;15.93;10.25;;;14.50;75.70;;;;;;5000430;28;20022;-76
2021/05/17 10:36:06;;;;;;;15.68;10.13;;;14.20;76.30;;;;;;5012183;28;20030;-73
2021/05/17 10:44:14;;;;;;;17.40;11.73;;;14.10;77.10;;;;;;5008742;28;20037;-72
2021/05/17 10:46:45;;;;;;;18.80;12.23;;;14.10;77.20;;;;;;5003609;28;20101;-79
2021/05/17 10:49:37;;;;;;;22.15;13.60;;;14.00;77.50;;;;;;5011146;28;20042;-74
2021/05/17 10:52:06;;;;;;;18.98;12.93;;;13.90;77.90;;;;;;5013777;28;20542;-75
2021/05/17 10:54:36;;;;;;;20.27;13.18;;;13.70;78.70;;;;;;5015223;28;20034;-74
2021/05/17 10:57:05;;;;;;;19.05;13.27;;;13.50;79.20;;;;;;5017232;28;20024;-73
2021/05/17 11:02:28;;;;;;;21.85;15.07;;;13.00;80.30;;;;;;5013475;28;20592;-72
2021/05/17 11:04:55;;;;;;;21.02;15.00;;;13.00;80.80;;;;;;5012527;28;20456;-77
2021/05/17 11:07:45;;;;;;;21.50;13.52;;;13.00;80.60;;;;;;5012649;28;20284;-71
2021/05/17 11:10:20;;;;;;;23.08;13.27;;;13.10;79.20;;;;;;5007010;28;20042;-76
2021/05/17 11:12:57;;;;;;;16.73;11.57;;;13.10;79.30;;;;;;5009857;28;20613;-72
2021/05/17 11:15:27;;;;;;;18.90;12.07;;;13.20;78.80;;;;;;5005111;28;20038;-72
2021/05/17 11:18:05;;;;;;;19.45;13.32;;;13.10;78.20;;;;;;5007728;28;20556;-71
2021/05/17 11:20:49;;;;;;;18.15;12.88;;;13.20;79.00;;;;;;4992345;28;20301;-76
2021/05/17 11:23:22;;;;;;;19.83;13.77;;;13.40;79.20;;;;;;5008227;28;20083;-72
2021/05/17 11:25:51;;;;;;;18.92;13.32;;;13.50;79.00;;;;;;5009247;28;20517;-74
2021/05/17 11:28:41;;;;;;;17.33;12.75;;;13.60;78.70;;;;;;5013009;28;20450;-71
2021/05/17 11:31:27;;;;;;;22.23;13.10;;;13.60;77.50;;;;;;5017235;28;20041;-75
2021/05/17 11:33:58;;;;;;;17.90;11.50;;;13.80;77.80;;;;;;5030684;28;20097;-75
2021/05/17 11:36:26;;;;;;;19.23;11.18;;;13.70;76.60;;;;;;5021374;28;20030;-76
2021/05/17 11:39:14;;;;;;;16.88;11.80;;;13.70;76.40;;;;;;5019320;28;20037;-73
2021/05/17 11:41:50;;;;;;;17.50;11.75;;;13.70;75.50;;;;;;5019199;28;21591;-74
2021/05/17 11:44:22;;;;;;;17.40;11.73;;;14.00;76.00;;;;;;5015171;28;20576;-72
2021/05/17 11:46:50;;;;;;;19.48;12.35;;;14.50;75.00;;;;;;5021903;28;20042;-72
2021/05/17 11:49:18;;;;;;;18.15;12.45;;;14.80;73.40;;;;;;5022701;28;20108;-72
2021/05/17 11:51:49;;;;;;;19.30;12.38;;;15.00;73.50;;;;;;5019039;28;20457;-75
2021/05/17 11:54:15;;;;;;;16.65;11.57;;;14.70;71.90;;;;;;5015551;28;20030;-75
2021/05/17 11:56:46;;;;;;;18.75;12.40;;;15.10;72.10;;;;;;5017396;28;20042;-73
2021/05/17 11:59:17;;;;;;;15.77;10.82;;;15.20;70.50;;;;;;5022734;28;20111;-72
2021/05/17 12:01:46;;;;;;;19.40;12.02;;;15.30;69.60;;;;;;5000926;28;20477;-74
2021/05/17 12:04:20;;;;;;;19.08;12.30;;;14.80;71.50;;;;;;4997399;28;20034;-72
2021/05/17 12:06:47;;;;;;;;;;;15.00;72.10;;;;;;5012869;28;20057;-77
2021/05/17 12:09:25;;;;;;;20.67;11.95;;;14.70;70.80;;;;;;5018493;28;20357;-72
2021/05/17 12:11:51;;;;;;;19.17;12.75;;;14.50;71.80;;;;;;5019616;28;20042;-72
2021/05/17 12:14:17;;;;;;;21.08;12.68;;;14.50;72.80;;;;;;5020122;28;20546;-72
2021/05/17 12:16:42;;;;;;;16.15;11.85;;;14.60;72.10;;;;;;5021545;28;20045;-71
2021/05/17 12:19:08;;;;;;;20.85;12.25;;;14.50;72.20;;;;;;5023808;28;20088;-71
2021/05/17 12:21:36;;;;;;;20.90;12.63;;;14.60;71.90;;;;;;5030288;28;20088;-72
2021/05/17 12:24:06;;;;;;;20.13;10.93;;;14.80;71.40;;;;;;5015267;28;20534;-72
2021/05/17 12:26:59;;;;;;;17.20;10.18;;;14.70;71.40;;;;;;5026742;28;20038;-72
2021/05/17 12:29:28;;;;;;;14.35;9.38;;;15.00;69.80;;;;;;5022649;28;20033;-73
2021/05/17 12:32:06;;;;;;;17.55;10.48;;;15.10;69.70;;;;;;5016988;28;20038;-71
2021/05/17 12:34:32;;;;;;;17.55;10.25;;;15.30;68.70;;;;;;4999279;28;20124;-71
2021/05/17 12:36:58;;;;;;;14.63;9.65;;;15.40;69.80;;;;;;4998596;28;20129;-74
2021/05/17 12:39:23;;;;;;;17.17;10.18;;;15.40;69.70;;;;;;4996440;28;20122;-71
2021/05/17 12:41:49;;;;;;;14.35;9.73;;;15.70;69.00;;;;;;5000310;28;20458;-73
2021/05/17 12:44:35;;;;;;;17.05;10.45;;;16.10;66.60;;;;;;5005299;28;20038;-70
2021/05/17 12:47:12;;;;;;;16.40;11.00;;;16.20;67.40;;;;;;5021235;28;20030;-71
2021/05/17 12:49:52;;;;;;;17.25;9.85;;;16.30;65.10;;;;;;5020408;28;20088;-72
2021/05/17 12:52:26;;;;;;;14.93;9.80;;;16.70;65.20;;;;;;5025006;28;20477;-71
2021/05/17 12:55:15;;;;;;;16.65;11.90;;;16.70;64.70;;;;;;5019283;28;20404;-72
2021/05/17 12:57:47;;;;;;;18.10;12.30;;;16.20;67.40;;;;;;5022044;28;20045;-72
2021/05/17 13:00:14;;;;;;;19.88;12.07;;;15.80;67.20;;;;;;5017573;28;20037;-72
2021/05/17 13:02:40;;;;;;;20.05;12.27;;;16.00;68.70;;;;;;5019991;28;20051;-72
2021/05/17 13:05:07;;;;;;;16.58;11.13;;;15.80;67.50;;;;;;5005747;28;20051;-76
2021/05/17 13:07:32;;;;;;;16.92;11.50;;;15.60;69.10;;;;;;5005487;28;20159;-77
2021/05/17 13:09:58;;;;;;;18.23;10.70;;;15.60;67.20;;;;;;5024738;28;20128;-72
2021/05/17 13:12:25;;;;;;;17.95;11.07;;;15.40;66.00;;;;;;5019507;28;20041;-73
2021/05/17 13:14:51;;;;;;;14.98;10.75;;;15.30;66.60;;;;;;5017387;28;20030;-76